createdAt,value
2023-01-15T00:02:17.797Z,59.08
2023-01-15T00:04:47.739Z,58.94
2023-01-15T00:07:16.593Z,58.89
2023-01-15T00:09:45.400Z,58.54
2023-01-15T00:12:14.295Z,58.54
2023-01-15T00:14:42.828Z,58.66
2023-01-15T00:17:11.763Z,59.03
2023-01-15T00:19:40.364Z,58.41
2023-01-15T00:22:10.676Z,58.98
2023-01-15T00:24:56.543Z,58.49
2023-01-15T00:27:43.678Z,58.19
2023-01-15T00:30:15.495Z,58.17
2023-01-15T00:32:45.840Z,59.03
2023-01-15T00:35:15.789Z,58.23
2023-01-15T00:37:46.493Z,58.77
2023-01-15T00:40:16.641Z,58.16
2023-01-15T00:42:53.742Z,58.21
2023-01-15T00:45:24.069Z,58.07
2023-01-15T00:47:53.056Z,57.96
2023-01-15T00:50:22.900Z,58.12
2023-01-15T00:52:53.140Z,57.86
2023-01-15T00:55:22.407Z,57.79
2023-01-15T00:57:51.271Z,57.98
2023-01-15T01:00:20.177Z,58.09
2023-01-15T01:02:49.185Z,58.26
2023-01-15T01:05:17.941Z,57.63
2023-01-15T01:07:46.851Z,58.23
2023-01-15T01:10:18.205Z,57.97
2023-01-15T01:12:48.664Z,57.70
2023-01-15T01:15:17.248Z,57.94
2023-01-15T01:17:46.386Z,58.61
2023-01-15T01:20:17.209Z,59.00
2023-01-15T01:22:46.143Z,58.82
2023-01-15T01:25:14.995Z,58.45
2023-01-15T01:27:47.489Z,58.73
2023-01-15T01:30:16.593Z,58.93
2023-01-15T01:32:46.374Z,58.73
2023-01-15T01:35:14.881Z,58.91
2023-01-15T01:37:43.900Z,58.95
2023-01-15T01:40:13.247Z,59.25
2023-01-15T01:42:42.163Z,59.16
2023-01-15T01:45:24.923Z,59.22
2023-01-15T01:47:57.453Z,59.85
2023-01-15T01:50:27.329Z,59.56
2023-01-15T01:53:04.816Z,59.50
2023-01-15T01:55:35.895Z,59.26
2023-01-15T01:58:09.842Z,59.36
2023-01-15T02:00:46.217Z,58.60
2023-01-15T02:03:15.864Z,58.87
2023-01-15T02:05:50.297Z,58.96
2023-01-15T02:08:19.873Z,59.11
2023-01-15T02:10:52.828Z,58.81
2023-01-15T02:13:29.274Z,58.74
2023-01-15T02:16:05.066Z,58.77
2023-01-15T02:18:41.552Z,59.01
2023-01-15T02:21:24.311Z,59.36
2023-01-15T02:24:06.859Z,59.15
2023-01-15T02:27:07.276Z,59.60
2023-01-15T02:29:48.722Z,59.81
2023-01-15T02:32:30.834Z,60.30
2023-01-15T02:35:06.085Z,60.95
2023-01-15T02:37:40.636Z,61.06
2023-01-15T02:40:13.446Z,60.85
2023-01-15T02:42:47.722Z,60.47
2023-01-15T02:45:24.208Z,60.75
2023-01-15T02:47:58.121Z,60.36
2023-01-15T02:50:31.068Z,60.61
2023-01-15T02:53:05.855Z,60.39
2023-01-15T02:55:44.225Z,60.35
2023-01-15T02:58:21.866Z,60.12
2023-01-15T03:00:54.730Z,60.30
2023-01-15T03:03:36.827Z,60.11
2023-01-15T03:06:12.094Z,60.07
2023-01-15T03:08:42.228Z,59.68
2023-01-15T03:11:14.315Z,59.76
2023-01-15T03:13:53.098Z,59.78
2023-01-15T03:16:36.043Z,59.89
2023-01-15T03:19:14.310Z,60.15
2023-01-15T03:21:49.952Z,59.98
2023-01-15T03:24:26.481Z,60.14
2023-01-15T03:26:55.840Z,60.38
2023-01-15T03:29:30.334Z,60.25
2023-01-15T03:32:00.981Z,59.85
2023-01-15T03:34:37.968Z,59.46
2023-01-15T03:37:08.847Z,59.31
2023-01-15T03:39:37.708Z,59.28
2023-01-15T03:42:30.649Z,59.59
2023-01-15T03:45:11.738Z,59.61
2023-01-15T03:47:51.302Z,59.77
2023-01-15T03:50:28.880Z,59.93
2023-01-15T03:53:07.997Z,60.02
2023-01-15T03:55:45.388Z,59.99
2023-01-15T03:58:21.578Z,60.41
2023-01-15T04:00:54.954Z,60.56
2023-01-15T04:03:27.841Z,61.15
2023-01-15T04:06:00.307Z,61.24
2023-01-15T04:08:35.045Z,60.87
2023-01-15T04:11:03.865Z,61.25
2023-01-15T04:13:35.281Z,60.72
2023-01-15T04:16:06.931Z,61.38
2023-01-15T04:18:35.923Z,60.47
2023-01-15T04:21:05.582Z,60.57
2023-01-15T04:23:36.802Z,60.67
2023-01-15T04:26:05.419Z,60.77
2023-01-15T04:28:34.343Z,60.83
2023-01-15T04:31:02.871Z,61.08
2023-01-15T04:33:33.181Z,61.91
2023-01-15T04:36:02.266Z,62.95
2023-01-15T04:38:31.429Z,62.89
2023-01-15T04:41:19.761Z,62.93
2023-01-15T04:44:08.542Z,63.11
2023-01-15T04:46:39.139Z,63.70
2023-01-15T04:49:12.123Z,63.87
2023-01-15T04:51:41.191Z,63.84
2023-01-15T04:54:11.924Z,63.50
2023-01-15T04:56:42.826Z,63.07
2023-01-15T04:59:12.419Z,63.51
2023-01-15T05:01:46.379Z,63.57
2023-01-15T05:04:24.938Z,63.07
2023-01-15T05:06:53.587Z,63.41
2023-01-15T05:09:22.527Z,63.54
2023-01-15T05:11:51.032Z,63.47
2023-01-15T05:14:20.052Z,63.14
2023-01-15T05:16:48.562Z,63.43
2023-01-15T05:19:17.371Z,62.73
2023-01-15T05:21:47.397Z,63.26
2023-01-15T05:24:18.593Z,62.93
2023-01-15T05:26:47.475Z,63.05
2023-01-15T05:29:16.821Z,63.00
2023-01-15T05:31:46.130Z,63.02
2023-01-15T05:34:15.400Z,63.27
2023-01-15T05:36:43.946Z,62.94
2023-01-15T05:39:14.230Z,63.13
2023-01-15T05:41:52.770Z,62.59
2023-01-15T05:44:23.998Z,62.27
2023-01-15T05:46:55.030Z,62.10
2023-01-15T05:49:26.391Z,61.43
2023-01-15T05:51:55.840Z,61.50
2023-01-15T05:54:28.432Z,60.92
2023-01-15T05:56:57.437Z,61.31
2023-01-15T05:59:28.324Z,61.24
2023-01-15T06:01:57.855Z,61.79
2023-01-15T06:04:27.092Z,62.41
2023-01-15T06:06:57.154Z,61.73
2023-01-15T06:09:29.577Z,62.06
2023-01-15T06:11:58.926Z,62.48
2023-01-15T06:14:27.957Z,63.40
2023-01-15T06:16:56.698Z,63.62
2023-01-15T06:19:25.624Z,63.73
2023-01-15T06:21:54.253Z,63.25
2023-01-15T06:24:23.137Z,64.07
2023-01-15T06:26:53.183Z,63.43
2023-01-15T06:29:22.058Z,63.58
2023-01-15T06:31:50.748Z,63.70
2023-01-15T06:34:19.586Z,63.94
2023-01-15T06:36:48.188Z,64.14
2023-01-15T06:39:17.472Z,65.07
2023-01-15T06:42:03.341Z,65.66
2023-01-15T06:44:51.276Z,65.41
2023-01-15T06:47:21.958Z,66.49
2023-01-15T06:49:53.629Z,66.30
2023-01-15T06:52:22.461Z,66.21
2023-01-15T06:54:51.781Z,65.50
2023-01-15T06:57:20.687Z,66.44
2023-01-15T06:59:52.175Z,65.86
2023-01-15T07:02:21.908Z,65.66
2023-01-15T07:04:51.020Z,66.17
2023-01-15T07:07:21.590Z,65.66
2023-01-15T07:09:50.792Z,65.53
2023-01-15T07:12:19.833Z,65.42
2023-01-15T07:14:50.290Z,65.62
2023-01-15T07:17:18.944Z,65.35
2023-01-15T07:19:48.135Z,65.48
2023-01-15T07:22:16.589Z,64.86
2023-01-15T07:24:45.486Z,64.57
2023-01-15T07:27:14.050Z,64.05
2023-01-15T07:29:42.936Z,64.05
2023-01-15T07:32:13.668Z,64.01
2023-01-15T07:34:42.938Z,64.36
2023-01-15T07:37:11.834Z,63.47
2023-01-15T07:39:40.739Z,63.26
2023-01-15T07:42:28.929Z,63.49
2023-01-15T07:45:15.532Z,62.77
2023-01-15T07:48:03.546Z,62.70
2023-01-15T07:50:32.839Z,62.26
2023-01-15T07:53:01.363Z,62.44
2023-01-15T07:55:30.553Z,61.79
2023-01-15T07:57:59.822Z,62.81
2023-01-15T08:00:28.722Z,62.43
2023-01-15T08:02:58.635Z,61.72
2023-01-15T08:05:27.891Z,61.50
2023-01-15T08:07:56.413Z,60.98
2023-01-15T08:10:26.180Z,60.98
2023-01-15T08:13:12.377Z,61.28
2023-01-15T08:15:44.144Z,61.96
2023-01-15T08:18:14.153Z,62.18
2023-01-15T08:20:45.063Z,61.70
2023-01-15T08:23:14.839Z,62.23
2023-01-15T08:25:43.662Z,61.87
2023-01-15T08:28:14.636Z,61.63
2023-01-15T08:30:43.520Z,61.31
2023-01-15T08:33:13.393Z,61.44
2023-01-15T08:35:42.385Z,61.22
2023-01-15T08:38:11.626Z,61.33
2023-01-15T08:40:58.880Z,60.94
2023-01-15T08:43:28.724Z,60.17
2023-01-15T08:45:59.186Z,60.21
2023-01-15T08:48:30.986Z,59.72
2023-01-15T08:51:00.119Z,60.27
2023-01-15T08:53:29.722Z,60.07
2023-01-15T08:55:58.896Z,59.06
2023-01-15T08:58:29.818Z,59.14
2023-01-15T09:01:05.113Z,58.48
2023-01-15T09:03:35.124Z,58.99
2023-01-15T09:06:06.000Z,58.76
2023-01-15T09:08:34.725Z,59.16
2023-01-15T09:11:06.891Z,59.06
2023-01-15T09:13:35.695Z,58.92
2023-01-15T09:16:06.853Z,58.15
2023-01-15T09:18:39.162Z,58.40
2023-01-15T09:21:08.040Z,58.15
2023-01-15T09:23:36.884Z,57.69
2023-01-15T09:26:08.125Z,56.93
2023-01-15T09:28:36.929Z,57.30
2023-01-15T09:31:06.273Z,55.98
2023-01-15T09:33:34.870Z,56.84
2023-01-15T09:36:05.514Z,55.67
2023-01-15T09:38:35.246Z,55.51
2023-01-15T09:41:33.363Z,54.94
2023-01-15T09:44:16.498Z,55.71
2023-01-15T09:46:56.294Z,54.89
2023-01-15T09:49:38.740Z,54.62
2023-01-15T09:52:18.161Z,54.45
2023-01-15T09:54:59.115Z,54.71
2023-01-15T09:57:29.663Z,53.92
2023-01-15T10:00:03.686Z,53.84
2023-01-15T10:02:46.296Z,53.22
2023-01-15T10:05:23.595Z,52.23
2023-01-15T10:07:59.351Z,52.20
2023-01-15T10:10:34.101Z,52.14
2023-01-15T10:13:11.063Z,51.64
2023-01-15T10:15:43.200Z,51.83
2023-01-15T10:18:17.244Z,51.18
2023-01-15T10:21:15.928Z,50.20
2023-01-15T10:24:02.821Z,49.98
2023-01-15T10:26:38.141Z,49.91
2023-01-15T10:29:17.801Z,49.15
2023-01-15T10:31:54.871Z,48.84
2023-01-15T10:35:00.427Z,48.84
2023-01-15T10:37:35.535Z,48.73
2023-01-15T10:40:26.581Z,48.98
2023-01-15T10:43:04.091Z,48.91
2023-01-15T10:45:38.211Z,47.65
2023-01-15T10:48:13.281Z,48.24
2023-01-15T10:50:42.998Z,47.78
2023-01-15T10:53:18.962Z,47.57
2023-01-15T10:55:55.920Z,47.75
2023-01-15T10:58:31.227Z,47.30
2023-01-15T11:01:04.637Z,47.36
2023-01-15T11:03:37.833Z,47.31
2023-01-15T11:06:09.411Z,47.20
2023-01-15T11:12:03.705Z,46.91
2023-01-15T11:14:54.301Z,46.70
2023-01-15T11:17:42.261Z,46.16
2023-01-15T11:20:33.119Z,45.79
2023-01-15T11:23:09.720Z,45.72
2023-01-15T11:25:44.460Z,45.92
2023-01-15T11:28:15.626Z,45.45
2023-01-15T11:30:54.095Z,45.22
2023-01-15T11:33:25.383Z,45.58
2023-01-15T11:35:58.375Z,44.85
2023-01-15T11:38:29.192Z,44.80
2023-01-15T11:41:00.339Z,44.55
2023-01-15T11:43:49.594Z,44.38
2023-01-15T11:46:40.537Z,44.86
2023-01-15T11:49:28.683Z,45.88
2023-01-15T11:51:59.783Z,44.74
2023-01-15T11:54:31.763Z,45.32
2023-01-15T11:57:00.515Z,45.56
2023-01-15T11:59:30.906Z,45.83
2023-01-15T12:02:04.387Z,44.73
2023-01-15T12:04:40.081Z,44.51
2023-01-15T12:07:15.029Z,43.97
2023-01-15T12:10:01.649Z,42.96
2023-01-15T12:12:44.639Z,43.64
2023-01-15T12:15:34.682Z,43.26
2023-01-15T12:18:31.541Z,43.21
2023-01-15T12:21:05.297Z,42.80
2023-01-15T12:23:56.307Z,42.84
2023-01-15T12:26:28.561Z,42.63
2023-01-15T12:29:05.529Z,43.01
2023-01-15T12:31:40.174Z,43.13
2023-01-15T12:34:20.735Z,42.63
2023-01-15T12:36:54.138Z,43.03
2023-01-15T12:39:28.516Z,42.65
2023-01-15T12:42:20.894Z,42.86
2023-01-15T12:45:04.790Z,43.09
2023-01-15T12:47:43.970Z,43.30
2023-01-15T12:50:26.655Z,43.12
2023-01-15T12:53:04.909Z,43.84
2023-01-15T12:55:38.900Z,43.66
2023-01-15T12:58:18.631Z,43.33
2023-01-15T13:00:48.727Z,43.87
2023-01-15T13:03:25.272Z,44.16
2023-01-15T13:05:58.837Z,44.70
2023-01-15T13:08:36.100Z,44.27
2023-01-15T13:11:05.156Z,43.78
2023-01-15T13:13:39.279Z,43.27
2023-01-15T13:16:19.388Z,43.51
2023-01-15T13:18:59.327Z,43.43
2023-01-15T13:21:33.515Z,43.76
2023-01-15T13:24:26.685Z,43.70
2023-01-15T13:27:16.369Z,44.13
2023-01-15T13:29:58.032Z,43.98
2023-01-15T13:32:30.838Z,44.09
2023-01-15T13:35:09.109Z,44.30
2023-01-15T13:37:45.374Z,43.97
2023-01-15T13:40:22.143Z,44.15
2023-01-15T13:42:52.982Z,44.50
2023-01-15T13:45:40.286Z,44.60
2023-01-15T13:48:15.237Z,44.60
2023-01-15T13:50:54.898Z,44.23
2023-01-15T13:53:29.935Z,44.10
2023-01-15T13:56:05.612Z,44.17
2023-01-15T13:58:36.580Z,44.91
2023-01-15T14:01:09.316Z,44.90
2023-01-15T14:03:39.443Z,44.75
2023-01-15T14:06:11.277Z,44.71
2023-01-15T14:08:42.094Z,44.77
2023-01-15T14:11:36.105Z,44.62
2023-01-15T14:14:45.036Z,44.46
2023-01-15T14:17:41.768Z,44.15
2023-01-15T14:20:36.989Z,44.50
2023-01-15T14:23:20.150Z,44.60
2023-01-15T14:26:01.482Z,44.69
2023-01-15T14:28:54.418Z,44.35
2023-01-15T14:31:39.145Z,44.31
2023-01-15T14:34:18.682Z,44.61
2023-01-15T14:36:52.861Z,44.77
2023-01-15T14:39:43.006Z,44.76
2023-01-15T14:42:35.272Z,44.97
2023-01-15T14:45:08.302Z,45.17
2023-01-15T14:47:45.279Z,44.81
2023-01-15T14:50:31.207Z,44.82
2023-01-15T14:53:05.112Z,44.98
2023-01-15T14:55:40.046Z,45.00
2023-01-15T14:58:18.452Z,45.02
2023-01-15T15:00:55.900Z,44.98
2023-01-15T15:03:35.506Z,45.26
2023-01-15T15:06:06.229Z,45.35
2023-01-15T15:08:36.945Z,45.46
2023-01-15T15:11:36.932Z,45.42
2023-01-15T15:14:08.110Z,45.83
2023-01-15T15:16:45.013Z,45.69
2023-01-15T15:19:19.264Z,45.77
2023-01-15T15:21:49.566Z,45.62
2023-01-15T15:24:25.496Z,45.80
2023-01-15T15:26:56.035Z,46.05
2023-01-15T15:29:24.773Z,46.53
2023-01-15T15:31:57.241Z,46.52
2023-01-15T15:34:29.930Z,46.85
2023-01-15T15:37:01.733Z,47.11
2023-01-15T15:39:43.401Z,47.32
2023-01-15T15:42:38.883Z,47.41
2023-01-15T15:45:34.699Z,46.78
2023-01-15T15:48:31.697Z,47.53
2023-01-15T15:51:01.017Z,47.03
2023-01-15T15:53:31.018Z,46.94
2023-01-15T15:56:01.757Z,47.24
2023-01-15T15:58:35.461Z,47.60
2023-01-15T16:01:04.422Z,47.71
2023-01-15T16:03:34.704Z,47.84
2023-01-15T16:06:06.021Z,47.01
2023-01-15T16:08:37.302Z,47.50
2023-01-15T16:11:08.541Z,47.00
2023-01-15T16:13:44.131Z,47.24
2023-01-15T16:16:16.585Z,47.84
2023-01-15T16:18:48.316Z,47.28
2023-01-15T16:21:20.333Z,47.42
2023-01-15T16:23:57.832Z,47.41
2023-01-15T16:26:34.285Z,46.90
2023-01-15T16:29:07.028Z,47.62
2023-01-15T16:31:36.533Z,47.19
2023-01-15T16:34:07.160Z,47.28
2023-01-15T16:36:41.272Z,46.67
2023-01-15T16:39:23.478Z,46.40
2023-01-15T16:41:55.628Z,46.77
2023-01-15T16:44:36.301Z,47.32
2023-01-15T16:47:05.925Z,47.46
2023-01-15T16:49:35.206Z,47.62
2023-01-15T16:52:04.953Z,47.63
2023-01-15T16:54:45.825Z,48.47
2023-01-15T16:57:30.348Z,48.04
2023-01-15T17:00:04.991Z,48.72
2023-01-15T17:02:45.409Z,49.39
2023-01-15T17:05:32.493Z,49.49
2023-01-15T17:08:01.132Z,49.76
2023-01-15T17:10:31.511Z,50.27
2023-01-15T17:13:00.613Z,49.16
2023-01-15T17:15:42.471Z,49.81
2023-01-15T17:18:23.046Z,49.69
2023-01-15T17:20:52.426Z,49.40
2023-01-15T17:23:26.727Z,49.38
2023-01-15T17:25:58.122Z,49.18
2023-01-15T17:28:26.746Z,49.34
2023-01-15T17:31:00.653Z,49.30
2023-01-15T17:33:29.313Z,48.86
2023-01-15T17:36:00.803Z,48.89
2023-01-15T17:38:29.491Z,48.95
2023-01-15T17:41:00.682Z,48.56
2023-01-15T17:43:29.243Z,48.64
2023-01-15T17:46:01.082Z,47.86
2023-01-15T17:48:29.664Z,46.73
2023-01-15T17:51:01.574Z,46.79
2023-01-15T17:53:32.450Z,47.52
2023-01-15T17:56:19.252Z,47.49
2023-01-15T17:59:05.584Z,46.96
2023-01-15T18:01:57.436Z,46.11
2023-01-15T18:04:47.290Z,45.73
2023-01-15T18:07:17.415Z,46.49
2023-01-15T18:09:46.571Z,45.30
2023-01-15T18:12:15.445Z,46.32
2023-01-15T18:14:44.163Z,45.77
2023-01-15T18:17:14.447Z,45.72
2023-01-15T18:19:43.388Z,45.64
2023-01-15T18:22:13.749Z,46.19
2023-01-15T18:24:42.373Z,45.67
2023-01-15T18:27:11.481Z,45.80
2023-01-15T18:29:40.484Z,45.75
2023-01-15T18:32:09.669Z,45.79
2023-01-15T18:34:39.722Z,46.20
2023-01-15T18:37:08.905Z,46.00
2023-01-15T18:39:38.082Z,45.89
2023-01-15T18:42:24.722Z,45.56
2023-01-15T18:45:10.848Z,45.64
2023-01-15T18:47:41.136Z,45.72
2023-01-15T18:50:12.213Z,45.79
2023-01-15T18:52:52.914Z,45.52
2023-01-15T18:55:22.895Z,45.57
2023-01-15T18:57:51.818Z,45.88
2023-01-15T19:00:21.407Z,45.29
2023-01-15T19:02:50.657Z,45.49
2023-01-15T19:05:20.882Z,45.82
2023-01-15T19:07:50.026Z,45.84
2023-01-15T19:10:19.789Z,45.47
2023-01-15T19:12:49.503Z,45.05
2023-01-15T19:15:37.872Z,45.96
2023-01-15T19:18:24.866Z,45.16
2023-01-15T19:20:54.764Z,44.77
2023-01-15T19:23:23.687Z,45.43
2023-01-15T19:25:52.377Z,45.22
2023-01-15T19:28:22.226Z,44.84
2023-01-15T19:31:16.055Z,45.57
2023-01-15T19:33:45.025Z,44.98
2023-01-15T19:36:14.984Z,44.77
2023-01-15T19:38:43.939Z,45.12
2023-01-15T19:41:31.281Z,45.34
2023-01-15T19:44:18.144Z,45.26
2023-01-15T19:47:04.686Z,44.70
2023-01-15T19:49:54.741Z,45.03
2023-01-15T19:52:36.976Z,45.38
2023-01-15T19:55:08.765Z,45.12
2023-01-15T19:57:37.899Z,44.67
2023-01-15T20:00:08.475Z,44.61
2023-01-15T20:02:37.769Z,44.98
2023-01-15T20:05:08.212Z,44.00
2023-01-15T20:07:38.888Z,44.47
2023-01-15T20:10:11.264Z,44.38
2023-01-15T20:12:57.065Z,44.40
2023-01-15T20:15:27.168Z,44.36
2023-01-15T20:17:55.969Z,44.30
2023-01-15T20:20:25.621Z,44.21
2023-01-15T20:22:57.933Z,43.53
2023-01-15T20:25:27.494Z,43.68
2023-01-15T20:27:57.504Z,44.02
2023-01-15T20:30:27.317Z,43.75
2023-01-15T20:32:57.924Z,43.03
2023-01-15T20:35:29.287Z,43.00
2023-01-15T20:37:59.613Z,43.29
2023-01-15T20:40:29.060Z,43.19
2023-01-15T20:43:15.214Z,43.29
2023-01-15T20:45:44.292Z,43.28
2023-01-15T20:48:30.256Z,43.64
2023-01-15T20:51:01.873Z,43.42
2023-01-15T20:53:34.748Z,43.69
2023-01-15T20:56:05.026Z,43.21
2023-01-15T20:58:33.825Z,43.22
2023-01-15T21:01:03.969Z,43.11
2023-01-15T21:03:32.798Z,43.51
2023-01-15T21:06:04.641Z,43.34
2023-01-15T21:08:35.570Z,42.93
2023-01-15T21:11:04.693Z,42.72
2023-01-15T21:13:33.500Z,42.62
2023-01-15T21:16:04.977Z,42.83
2023-01-15T21:18:37.270Z,42.76
2023-01-15T21:21:10.334Z,42.56
2023-01-15T21:23:41.206Z,42.78
2023-01-15T21:26:10.231Z,42.67
2023-01-15T21:28:39.076Z,42.20
2023-01-15T21:31:08.871Z,42.23
2023-01-15T21:33:37.915Z,42.46
2023-01-15T21:36:08.116Z,42.01
2023-01-15T21:38:37.282Z,42.83
2023-01-15T21:41:11.918Z,42.48
2023-01-15T21:44:12.496Z,42.54
2023-01-15T21:46:41.389Z,42.10
2023-01-15T21:49:09.986Z,42.24
2023-01-15T21:51:38.797Z,42.48
2023-01-15T21:54:07.435Z,43.04
2023-01-15T21:56:39.725Z,43.20
2023-01-15T21:59:11.588Z,43.15
2023-01-15T22:01:40.895Z,43.38
2023-01-15T22:04:09.677Z,43.06
2023-01-15T22:06:38.717Z,43.28
2023-01-15T22:09:07.533Z,43.55
2023-01-15T22:11:46.744Z,44.18
2023-01-15T22:14:16.733Z,43.26
2023-01-15T22:16:46.794Z,43.56
2023-01-15T22:19:19.765Z,43.34
2023-01-15T22:21:49.815Z,43.29
2023-01-15T22:24:19.399Z,43.73
2023-01-15T22:26:54.416Z,44.04
2023-01-15T22:29:23.444Z,43.72
2023-01-15T22:31:53.334Z,43.66
2023-01-15T22:34:23.757Z,43.65
2023-01-15T22:36:53.626Z,44.37
2023-01-15T22:39:23.707Z,43.83
2023-01-15T22:42:11.717Z,44.02
2023-01-15T22:44:43.497Z,43.90
2023-01-15T22:47:13.119Z,43.43
2023-01-15T22:49:41.655Z,43.69
2023-01-15T22:52:10.678Z,44.27
2023-01-15T22:54:39.244Z,44.80
2023-01-15T22:57:09.995Z,44.55
2023-01-15T22:59:38.871Z,44.20
2023-01-15T23:02:07.916Z,44.01
2023-01-15T23:04:36.569Z,44.36
2023-01-15T23:07:05.560Z,44.23
2023-01-15T23:09:34.320Z,44.29
2023-01-15T23:12:03.247Z,43.36
2023-01-15T23:14:33.631Z,43.25
2023-01-15T23:17:22.523Z,43.55
2023-01-15T23:19:51.056Z,43.14
2023-01-15T23:22:19.893Z,42.68
2023-01-15T23:24:48.561Z,42.78
2023-01-15T23:27:17.464Z,42.80
2023-01-15T23:29:47.327Z,42.81
2023-01-15T23:32:16.252Z,43.21
2023-01-15T23:34:44.990Z,43.24
2023-01-15T23:37:13.794Z,42.66
2023-01-15T23:39:42.307Z,43.12
2023-01-15T23:42:29.535Z,42.75
2023-01-15T23:45:17.183Z,42.62
2023-01-15T23:47:46.365Z,42.26
2023-01-15T23:50:14.971Z,42.75
2023-01-15T23:52:43.868Z,42.63
2023-01-15T23:55:12.449Z,42.07
2023-01-15T23:57:41.279Z,41.96
